Terminal Aerodrome Forecast
Issued by NWS Mt. Holly, NJ

Current Version | Previous Version | Text Only | Print | Product List | Glossary On
Versions: 1 2 3 4 5 6 7 8 9 10 11 12 13
455
FTUS41 KPHI 241127
TAFTTN
TAF
KTTN 241127Z 2412/2512 36005KT P6SM SKC
     FM241600 04007KT P6SM SKC
     FM242300 15005KT P6SM SKC
     FM250400 VRB03KT P6SM SKC=

USA.gov is the U.S. government's official web portal to all federal, state and local government web resources and services.